^^
Meteo Knjazevac Station Historical Data
Daily Summary for September 28, 2021 Units:  Metric    English   Both
Daily Weekly Monthly Yearly Custom
  High: Low: Average:
Temperature: -0.5 °C -1.1 °C -0.8 °C
Dew Point: -2.6 °C -3.2 °C -2.9 °C
Humidity: 86% 84% 86%
Wind Speed: 11.3km/h 0km/h 6.4km/h
Wind Gust: 22.5km/h - -
Wind- - West
Pressure: 1014.4 hPa 1013.8 hPa -
Precipitation: 0 mm    
Historical Graphs
 
 
Tabular Data for September 28, 2021
Time Temperature Dew Point Pressure Wind Wind Speed Wind Gust Humidity Rainfall Rate (Hourly) solar Conditions
00:00 -0.8 °C -3 °C 1013.8 hPa West 8 km/h 11.3 km/h 85% 0 mm 0 W/m2
00:10 -0.8 °C -3 °C 1013.8 hPa West 8 km/h 17.7 km/h 85% 0 mm 0 W/m2
00:20 -0.8 °C -2.8 °C 1013.8 hPa West 8 km/h 16.1 km/h 86% 0 mm 0 W/m2
00:30 -0.9 °C -2.9 °C 1014.1 hPa West 4.8 km/h 12.9 km/h 86% 0 mm 0 W/m2
00:40 -0.9 °C -2.9 °C 1013.8 hPa West 1.6 km/h 19.3 km/h 86% 0 mm 0 W/m2
00:50 -0.9 °C -2.9 °C 1014.1 hPa West 3.2 km/h 11.3 km/h 86% 0 mm 0 W/m2
01:00 -1 °C -3.1 °C 1014.1 hPa NNW 9.7 km/h 16.1 km/h 86% 0 mm 0 W/m2
01:10 -0.8 °C -3 °C 1014.1 hPa West 4.8 km/h 14.5 km/h 85% 0 mm 0 W/m2
01:20 -0.9 °C -3.1 °C 1014.1 hPa West 9.7 km/h 12.9 km/h 85% 0 mm 0 W/m2
01:30 -0.8 °C -3 °C 1014.1 hPa West 9.7 km/h 14.5 km/h 85% 0 mm 0 W/m2
01:40 -0.7 °C -3.1 °C 1014.4 hPa West 4.8 km/h 17.7 km/h 84% 0 mm 0 W/m2
01:50 -0.7 °C -2.9 °C 1014.4 hPa West 4.8 km/h 11.3 km/h 85% 0 mm 0 W/m2
02:00 -0.7 °C -2.9 °C 1014.4 hPa West 4.8 km/h 9.7 km/h 85% 0 mm 0 W/m2
02:10 -0.8 °C -3 °C 1014.1 hPa West 3.2 km/h 8 km/h 85% 0 mm 0 W/m2
02:20 -0.7 °C -2.9 °C 1014.1 hPa WNW 3.2 km/h 12.9 km/h 85% 0 mm 0 W/m2
02:30 -0.8 °C -3 °C 1014.1 hPa West 1.6 km/h 11.3 km/h 85% 0 mm 0 W/m2
02:40 -0.8 °C -2.8 °C 1014.1 hPa WNW 1.6 km/h 11.3 km/h 86% 0 mm 0 W/m2
02:50 -0.7 °C -2.8 °C 1014.1 hPa NW 9.7 km/h 12.9 km/h 86% 0 mm 0 W/m2
03:00 -0.7 °C -2.8 °C 1014.1 hPa Calm   12.9 km/h 86% 0 mm 0 W/m2
03:10 -0.8 °C -2.8 °C 1014.1 hPa Calm   8 km/h 86% 0 mm 0 W/m2
03:20 -0.8 °C -2.8 °C 1014.1 hPa West 8 km/h 14.5 km/h 86% 0 mm 0 W/m2
03:30 -0.6 °C -2.7 °C 1014.1 hPa WSW 8 km/h 16.1 km/h 86% 0 mm 0 W/m2
03:40 -0.5 °C -2.6 °C 1014.1 hPa WSW 8 km/h 20.9 km/h 86% 0 mm 0 W/m2
03:50 -0.6 °C -2.7 °C 1014.1 hPa WSW 9.7 km/h 22.5 km/h 86% 0 mm 0 W/m2
04:00 -0.6 °C -2.7 °C 1014.1 hPa West 4.8 km/h 11.3 km/h 86% 0 mm 0 W/m2
04:10 -0.8 °C -2.8 °C 1014.1 hPa WSW 8 km/h 12.9 km/h 86% 0 mm 0 W/m2
04:20 -0.9 °C -2.9 °C 1014.1 hPa WSW 9.7 km/h 16.1 km/h 86% 0 mm 0 W/m2
04:30 -1 °C -3.1 °C 1014.1 hPa WSW 11.3 km/h 19.3 km/h 86% 0 mm 0 W/m2
04:40 -1 °C -3.1 °C 1014.1 hPa WSW 11.3 km/h 19.3 km/h 86% 0 mm 0 W/m2
04:50 -1.1 °C -3.2 °C 1014.1 hPa WSW 11.3 km/h 19.3 km/h 86% 0 mm 0 W/m2
Knjazevac, Serbia
Compliments of Weather Underground - 2 mb